Time;durP1;ratioP1;P1;durP2;ratioP2;P2;SDS_P1;SDS_P2;PMS_P1;PMS_P2;Temp;Humidity;BMP_temperature;BMP_pressure;BME280_temperature;BME280_humidity;BME280_pressure;Samples;Min_cycle;Max_cycle;Signal;HPM_P1;HPM_P2
2023/03/22 00:00:53;;;;;;;;;;;;;;;;;;7367004;19;778;-66
2023/03/22 00:03:21;;;;;;;;;;;;;;;;;;7367293;19;871;-66
2023/03/22 00:05:50;;;;;;;;;;;;;;;;;;7364461;19;1329;-66
2023/03/22 00:08:18;;;;;;;;;;;;;;;;;;7366295;19;814;-66
2023/03/22 00:10:46;;;;;;;;;;;;;;;;;;7365608;19;1846;-66
2023/03/22 00:13:14;;;;;;;;;;;;;;;;;;7366628;19;857;-66
2023/03/22 00:15:43;;;;;;;;;;;;;;;;;;7364255;19;1341;-67
2023/03/22 00:18:11;;;;;;;;;;;;;;;;;;7370043;19;1640;-66
2023/03/22 00:20:39;;;;;;;;;;;;;;;;;;7367254;19;880;-66
2023/03/22 00:23:08;;;;;;;;;;;;;;;;;;7365856;19;802;-66
2023/03/22 00:25:36;;;;;;;;;;;;;;;;;;7363900;19;1278;-66
2023/03/22 00:28:04;;;;;;;;;;;;;;;;;;7366047;19;803;-66
2023/03/22 00:30:32;;;;;;;;;;;;;;;;;;7364422;19;1854;-66
2023/03/22 00:33:00;;;;;;;;;;;;;;;;;;7362819;19;772;-65
2023/03/22 00:35:29;;;;;;;;;;;;;;;;;;7362756;19;1357;-66
2023/03/22 00:38:04;;;;;;;;;;;;;;;;;;7364661;19;782;-66
2023/03/22 00:40:32;;;;;;;;;;;;;;;;;;7365780;19;766;-66
2023/03/22 00:43:01;;;;;;;;;;;;;;;;;;7363361;19;851;-66
2023/03/22 00:45:30;;;;;;;;;;;;;;;;;;7363064;19;1292;-67
2023/03/22 00:47:58;;;;;;;;;;;;;;;;;;7363265;19;822;-66
2023/03/22 00:50:26;;;;;;;;;;;;;;;;;;7363535;19;1849;-67
2023/03/22 00:52:54;;;;;;;;;;;;;;;;;;7363852;19;802;-66
2023/03/22 00:55:22;;;;;;;;;;;;;;;;;;7362171;19;1352;-67
2023/03/22 00:57:50;;;;;;;;;;;;;;;;;;7364142;19;780;-66
2023/03/22 01:00:19;;;;;;;;;;;;;;;;;;7363538;19;894;-65
2023/03/22 01:02:47;;;;;;;;;;;;;;;;;;7363052;19;847;-66
2023/03/22 01:05:20;;;;;;;;;;;;;;;;;;7361841;19;1329;-66
2023/03/22 01:07:49;;;;;;;;;;;;;;;;;;7362384;19;859;-66
2023/03/22 01:10:17;;;;;;;;;;;;;;;;;;7364892;19;1842;-64
2023/03/22 01:12:46;;;;;;;;;;;;;;;;;;7364780;19;810;-66
2023/03/22 01:15:14;;;;;;;;;;;;;;;;;;7361827;19;1237;-66
2023/03/22 01:17:42;;;;;;;;;;;;;;;;;;7366005;19;1738;-69
2023/03/22 01:20:11;;;;;;;;;;;;;;;;;;7366853;19;837;-66
2023/03/22 01:22:39;;;;;;;;;;;;;;;;;;7367343;19;823;-65
2023/03/22 01:25:07;;;;;;;;;;;;;;;;;;7365019;19;1324;-66
2023/03/22 01:27:36;;;;;;;;;;;;;;;;;;7367480;19;841;-66
2023/03/22 01:30:04;;;;;;;;;;;;;;;;;;7365418;19;854;-66
2023/03/22 01:32:32;;;;;;;;;;;;;;;;;;7366144;19;814;-65
2023/03/22 01:35:00;;;;;;;;;;;;;;;;;;7362546;19;1353;-64
2023/03/22 01:37:31;;;;;;;;;;;;;;;;;;7362394;19;675;-65
2023/03/22 01:39:59;;;;;;;;;;;;;;;;;;7362302;19;878;-66
2023/03/22 01:42:27;;;;;;;;;;;;;;;;;;7361267;19;796;-65
2023/03/22 01:44:57;;;;;;;;;;;;;;;;;;7363841;19;1290;-66
2023/03/22 01:47:25;;;;;;;;;;;;;;;;;;7368362;19;961;-66
2023/03/22 01:49:54;;;;;;;;;;;;;;;;;;7369044;19;772;-65
2023/03/22 01:52:22;;;;;;;;;;;;;;;;;;7367057;19;1825;-65
2023/03/22 01:54:56;;;;;;;;;;;;;;;;;;7366724;19;1395;-66
2023/03/22 01:57:32;;;;;;;;;;;;;;;;;;7367467;19;745;-66
2023/03/22 02:00:03;;;;;;;;;;;;;;;;;;7367755;19;816;-65
2023/03/22 02:03:00;;;;;;;;;;;;;;;;;;7367956;19;779;-66
2023/03/22 02:05:35;;;;;;;;;;;;;;;;;;7366421;19;1377;-66
2023/03/22 02:08:04;;;;;;;;;;;;;;;;;;7366538;19;842;-66
2023/03/22 02:10:49;;;;;;;;;;;;;;;;;;7367847;19;1874;-66
2023/03/22 02:13:17;;;;;;;;;;;;;;;;;;7369117;19;806;-66
2023/03/22 02:15:55;;;;;;;;;;;;;;;;;;7366033;19;1290;-66
2023/03/22 02:18:37;;;;;;;;;;;;;;;;;;7369248;19;1749;-65
2023/03/22 02:21:05;;;;;;;;;;;;;;;;;;7371052;19;1854;-65
2023/03/22 02:23:33;;;;;;;;;;;;;;;;;;7367776;19;752;-65
2023/03/22 02:26:01;;;;;;;;;;;;;;;;;;7365940;19;1310;-65
2023/03/22 02:28:30;;;;;;;;;;;;;;;;;;7367290;19;805;-65
2023/03/22 02:30:58;;;;;;;;;;;;;;;;;;7366657;19;1855;-65
2023/03/22 02:33:27;;;;;;;;;;;;;;;;;;7366790;19;798;-66
2023/03/22 02:35:55;;;;;;;;;;;;;;;;;;7365719;19;1275;-66
2023/03/22 02:38:23;;;;;;;;;;;;;;;;;;7366703;19;802;-65
2023/03/22 02:40:51;;;;;;;;;;;;;;;;;;7367053;19;846;-66
2023/03/22 02:43:20;;;;;;;;;;;;;;;;;;7367504;19;898;-65
2023/03/22 02:45:48;;;;;;;;;;;;;;;;;;7367142;19;1313;-65
2023/03/22 02:48:17;;;;;;;;;;;;;;;;;;7367240;19;779;-64
2023/03/22 02:50:45;;;;;;;;;;;;;;;;;;7367375;19;1846;-65
2023/03/22 02:53:13;;;;;;;;;;;;;;;;;;7367494;19;956;-65
2023/03/22 02:55:43;;;;;;;;;;;;;;;;;;7364656;19;1329;-65
2023/03/22 02:58:11;;;;;;;;;;;;;;;;;;7366057;19;848;-65
2023/03/22 03:00:39;;;;;;;;;;;;;;;;;;7367366;19;859;-65
2023/03/22 03:03:10;;;;;;;;;;;;;;;;;;7367899;19;853;-66
2023/03/22 03:05:38;;;;;;;;;;;;;;;;;;7365371;19;1326;-65
2023/03/22 03:08:06;;;;;;;;;;;;;;;;;;7365740;19;786;-65
2023/03/22 03:10:34;;;;;;;;;;;;;;;;;;7366311;19;807;-65
2023/03/22 03:13:03;;;;;;;;;;;;;;;;;;7368032;19;874;-65
2023/03/22 03:15:31;;;;;;;;;;;;;;;;;;7366228;19;1265;-66
2023/03/22 03:17:59;;;;;;;;;;;;;;;;;;7367424;19;1954;-65
2023/03/22 03:20:29;;;;;;;;;;;;;;;;;;7368042;19;842;-66
2023/03/22 03:22:57;;;;;;;;;;;;;;;;;;7365489;19;829;-65
2023/03/22 03:25:25;;;;;;;;;;;;;;;;;;7365957;19;1274;-64
2023/03/22 03:27:56;;;;;;;;;;;;;;;;;;7365700;19;805;-64
2023/03/22 03:30:25;;;;;;;;;;;;;;;;;;7366043;19;826;-63
2023/03/22 03:32:54;;;;;;;;;;;;;;;;;;7363522;19;1847;-64
2023/03/22 03:35:24;;;;;;;;;;;;;;;;;;7365559;19;1298;-64
2023/03/22 03:37:52;;;;;;;;;;;;;;;;;;7366286;19;839;-64
2023/03/22 03:40:20;;;;;;;;;;;;;;;;;;7367439;19;829;-64
2023/03/22 03:42:49;;;;;;;;;;;;;;;;;;7366110;19;818;-66
2023/03/22 03:45:17;;;;;;;;;;;;;;;;;;7366306;19;1289;-65
2023/03/22 03:47:45;;;;;;;;;;;;;;;;;;7365852;19;800;-65
2023/03/22 03:50:13;;;;;;;;;;;;;;;;;;7365872;19;811;-64
2023/03/22 03:52:41;;;;;;;;;;;;;;;;;;7363871;19;1853;-64
2023/03/22 03:55:09;;;;;;;;;;;;;;;;;;7365404;19;1286;-65
2023/03/22 03:57:38;;;;;;;;;;;;;;;;;;7365095;19;842;-63
2023/03/22 04:00:06;;;;;;;;;;;;;;;;;;7365314;19;834;-64
2023/03/22 04:02:53;;;;;;;;;;;;;;;;;;7366450;19;820;-64
2023/03/22 04:05:38;;;;;;;;;;;;;;;;;;7362418;19;1698;-63
2023/03/22 04:08:06;;;;;;;;;;;;;;;;;;7364236;19;783;-64
2023/03/22 04:10:34;;;;;;;;;;;;;;;;;;7365151;19;846;-64
2023/03/22 04:13:03;;;;;;;;;;;;;;;;;;7361855;19;1849;-64
2023/03/22 04:15:31;;;;;;;;;;;;;;;;;;7362455;19;1259;-63
2023/03/22 04:18:02;;;;;;;;;;;;;;;;;;7366377;19;1704;-64
2023/03/22 04:20:32;;;;;;;;;;;;;;;;;;7364839;19;807;-65
2023/03/22 04:23:01;;;;;;;;;;;;;;;;;;7363895;19;858;-64
2023/03/22 04:25:32;;;;;;;;;;;;;;;;;;7362351;19;1248;-64
2023/03/22 04:28:06;;;;;;;;;;;;;;;;;;7363621;19;741;-65
2023/03/22 04:30:37;;;;;;;;;;;;;;;;;;7366411;19;805;-65
2023/03/22 04:33:11;;;;;;;;;;;;;;;;;;7363862;19;1845;-65
2023/03/22 04:36:04;;;;;;;;;;;;;;;;;;7361692;19;1310;-64
2023/03/22 04:38:38;;;;;;;;;;;;;;;;;;7363698;19;771;-65
2023/03/22 04:41:06;;;;;;;;;;;;;;;;;;7364605;19;834;-63
2023/03/22 04:43:45;;;;;;;;;;;;;;;;;;7363840;19;832;-64
2023/03/22 04:46:15;;;;;;;;;;;;;;;;;;7360984;19;1377;-64
2023/03/22 04:48:49;;;;;;;;;;;;;;;;;;7363634;19;813;-64
2023/03/22 04:51:18;;;;;;;;;;;;;;;;;;7364197;19;1854;-64
2023/03/22 04:54:07;;;;;;;;;;;;;;;;;;7362986;19;1330;-64
2023/03/22 04:56:35;;;;;;;;;;;;;;;;;;7363690;19;870;-64
2023/03/22 04:59:03;;;;;;;;;;;;;;;;;;7362929;19;868;-63
2023/03/22 05:01:33;;;;;;;;;;;;;;;;;;7365727;19;758;-64
2023/03/22 05:04:11;;;;;;;;;;;;;;;;;;7363089;19;1327;-64
2023/03/22 05:06:39;;;;;;;;;;;;;;;;;;7364707;19;900;-65
2023/03/22 05:09:13;;;;;;;;;;;;;;;;;;7362611;19;768;-65
2023/03/22 05:11:41;;;;;;;;;;;;;;;;;;7363168;19;1857;-64
2023/03/22 05:14:25;;;;;;;;;;;;;;;;;;7363756;19;1368;-63
2023/03/22 05:16:53;;;;;;;;;;;;;;;;;;7366191;19;1690;-64
2023/03/22 05:19:23;;;;;;;;;;;;;;;;;;7365097;19;794;-63
2023/03/22 05:21:57;;;;;;;;;;;;;;;;;;7370960;19;663;-64
2023/03/22 05:24:28;;;;;;;;;;;;;;;;;;7370116;19;1353;-64
2023/03/22 05:26:59;;;;;;;;;;;;;;;;;;7371458;19;771;-64
2023/03/22 05:29:27;;;;;;;;;;;;;;;;;;7372066;19;866;-64
2023/03/22 05:32:08;;;;;;;;;;;;;;;;;;7380316;19;1811;-64
2023/03/22 05:34:36;;;;;;;;;;;;;;;;;;7387767;19;1306;-64
2023/03/22 05:37:19;;;;;;;;;;;;;;;;;;7390289;19;1701;-66
2023/03/22 05:39:56;;;;;;;;;;;;;;;;;;7390274;19;988;-64
2023/03/22 05:42:33;;;;;;;;;;;;;;;;;;7388369;19;808;-66
2023/03/22 05:45:03;;;;;;;;;;;;;;;;;;7388370;19;1318;-66
2023/03/22 05:47:31;;;;;;;;;;;;;;;;;;7388833;19;824;-66
2023/03/22 05:50:06;;;;;;;;;;;;;;;;;;7389468;19;896;-66
2023/03/22 05:52:35;;;;;;;;;;;;;;;;;;7387332;19;1818;-66
2023/03/22 05:55:22;;;;;;;;;;;;;;;;;;7386835;19;1297;-66
2023/03/22 05:57:55;;;;;;;;;;;;;;;;;;7386041;19;741;-67
2023/03/22 06:00:24;;;;;;;;;;;;;;;;;;7387710;19;867;-66
2023/03/22 06:03:18;;;;;;;;;;;;;;;;;;7371358;19;1050;-66
2023/03/22 06:05:53;;;;;;;;;;;;;;;;;;7367353;19;1326;-65
2023/03/22 06:08:25;;;;;;;;;;;;;;;;;;7368233;19;796;-66
2023/03/22 06:10:53;;;;;;;;;;;;;;;;;;7370251;19;881;-66
2023/03/22 06:13:22;;;;;;;;;;;;;;;;;;7368375;19;1864;-66
2023/03/22 06:15:50;;;;;;;;;;;;;;;;;;7365687;19;1274;-67
2023/03/22 06:18:21;;;;;;;;;;;;;;;;;;7370871;19;1756;-66
2023/03/22 06:20:57;;;;;;;;;;;;;;;;;;7367577;19;774;-66
2023/03/22 06:23:26;;;;;;;;;;;;;;;;;;7368862;19;810;-66
2023/03/22 06:25:54;;;;;;;;;;;;;;;;;;7366403;19;1349;-66
2023/03/22 06:28:28;;;;;;;;;;;;;;;;;;7366711;19;852;-66
2023/03/22 06:30:56;;;;;;;;;;;;;;;;;;7366176;19;778;-66
2023/03/22 06:33:31;;;;;;;;;;;;;;;;;;7366110;19;1872;-66
2023/03/22 06:36:09;;;;;;;;;;;;;;;;;;7368173;19;1400;-65
2023/03/22 06:38:54;;;;;;;;;;;;;;;;;;7371358;19;1388;-65
2023/03/22 06:41:22;;;;;;;;;;;;;;;;;;7374568;19;1241;-65
2023/03/22 06:43:52;;;;;;;;;;;;;;;;;;7370048;19;1344;-64
2023/03/22 06:46:39;;;;;;;;;;;;;;;;;;7369745;19;773;-65
2023/03/22 06:49:15;;;;;;;;;;;;;;;;;;7369027;19;842;-65
2023/03/22 06:51:43;;;;;;;;;;;;;;;;;;7369582;19;1846;-65
2023/03/22 06:54:12;;;;;;;;;;;;;;;;;;7367394;19;1349;-66
2023/03/22 06:56:40;;;;;;;;;;;;;;;;;;7367983;19;858;-66
2023/03/22 06:59:08;;;;;;;;;;;;;;;;;;7367515;19;815;-66
2023/03/22 07:01:36;;;;;;;;;;;;;;;;;;7368240;19;828;-66
2023/03/22 07:04:04;;;;;;;;;;;;;;;;;;7366416;19;1342;-67
2023/03/22 07:06:33;;;;;;;;;;;;;;;;;;7368404;19;866;-65
2023/03/22 07:09:03;;;;;;;;;;;;;;;;;;7366493;19;799;-66
2023/03/22 07:11:35;;;;;;;;;;;;;;;;;;7366103;19;814;-66
2023/03/22 07:14:04;;;;;;;;;;;;;;;;;;7364201;19;1850;-66
2023/03/22 07:17:08;;;;;;;;;;;;;;;;;;7367373;19;1981;-65
2023/03/22 07:19:36;;;;;;;;;;;;;;;;;;7366104;19;845;-64
2023/03/22 07:22:08;;;;;;;;;;;;;;;;;;7369489;19;739;-65
2023/03/22 07:24:36;;;;;;;;;;;;;;;;;;7366267;19;1350;-65
2023/03/22 07:27:05;;;;;;;;;;;;;;;;;;7367346;19;790;-65
2023/03/22 07:29:33;;;;;;;;;;;;;;;;;;7364588;19;866;-66
2023/03/22 07:32:01;;;;;;;;;;;;;;;;;;7365486;19;1866;-66
2023/03/22 07:34:39;;;;;;;;;;;;;;;;;;7364252;19;1353;-66
2023/03/22 07:37:14;;;;;;;;;;;;;;;;;;7366140;19;739;-66
2023/03/22 07:39:43;;;;;;;;;;;;;;;;;;7365636;19;755;-66
2023/03/22 07:42:11;;;;;;;;;;;;;;;;;;7363939;19;835;-65
2023/03/22 07:44:58;;;;;;;;;;;;;;;;;;7367575;19;1914;-66
2023/03/22 07:47:26;;;;;;;;;;;;;;;;;;7368010;19;857;-66
2023/03/22 07:50:05;;;;;;;;;;;;;;;;;;7365155;19;1290;-66
2023/03/22 07:52:34;;;;;;;;;;;;;;;;;;7364542;19;1857;-67
2023/03/22 07:55:02;;;;;;;;;;;;;;;;;;7367992;19;1898;-66
2023/03/22 07:57:30;;;;;;;;;;;;;;;;;;7370257;19;1900;-67
2023/03/22 08:00:02;;;;;;;;;;;;;;;;;;7365337;19;814;-67
2023/03/22 08:02:50;;;;;;;;;;;;;;;;;;7367645;19;759;-66
2023/03/22 08:05:36;;;;;;;;;;;;;;;;;;7363204;19;1313;-66
2023/03/22 08:08:06;;;;;;;;;;;;;;;;;;7364693;19;1854;-65
2023/03/22 08:10:34;;;;;;;;;;;;;;;;;;7365691;19;843;-67
2023/03/22 08:13:02;;;;;;;;;;;;;;;;;;7366400;19;1882;-67
2023/03/22 08:15:32;;;;;;;;;;;;;;;;;;7367862;19;1873;-66
2023/03/22 08:18:00;;;;;;;;;;;;;;;;;;7367948;19;1825;-65
2023/03/22 08:20:39;;;;;;;;;;;;;;;;;;7367954;19;1714;-65
2023/03/22 08:23:14;;;;;;;;;;;;;;;;;;7364357;19;855;-65
2023/03/22 08:26:05;;;;;;;;;;;;;;;;;;7362953;19;1344;-66
2023/03/22 08:28:34;;;;;;;;;;;;;;;;;;7364292;19;870;-65
2023/03/22 08:31:02;;;;;;;;;;;;;;;;;;7364982;19;976;-67
2023/03/22 08:33:30;;;;;;;;;;;;;;;;;;7362046;19;1865;-66
2023/03/22 08:35:59;;;;;;;;;;;;;;;;;;7363008;19;1341;-65
2023/03/22 08:38:28;;;;;;;;;;;;;;;;;;7363111;19;1863;-66
2023/03/22 08:40:56;;;;;;;;;;;;;;;;;;7363106;19;866;-65
2023/03/22 08:43:26;;;;;;;;;;;;;;;;;;7366863;19;1922;-65
2023/03/22 08:45:54;;;;;;;;;;;;;;;;;;7362802;19;1361;-65
2023/03/22 08:48:22;;;;;;;;;;;;;;;;;;7364024;19;806;-65
2023/03/22 08:51:05;;;;;;;;;;;;;;;;;;7364480;19;707;-66
2023/03/22 08:54:00;;;;;;;;;;;;;;;;;;7360136;19;1838;-65
2023/03/22 08:56:51;;;;;;;;;;;;;;;;;;7367676;19;2232;-66
2023/03/22 08:59:38;;;;;;;;;;;;;;;;;;7363223;19;767;-66
2023/03/22 09:02:25;;;;;;;;;;;;;;;;;;7361882;19;798;-65
2023/03/22 09:04:54;;;;;;;;;;;;;;;;;;7365865;19;1835;-64
2023/03/22 09:07:23;;;;;;;;;;;;;;;;;;7367891;19;1988;-65
2023/03/22 09:10:02;;;;;;;;;;;;;;;;;;7363880;19;1858;-64
2023/03/22 09:12:31;;;;;;;;;;;;;;;;;;7363131;19;1868;-63
2023/03/22 09:14:59;;;;;;;;;;;;;;;;;;7361712;19;1337;-64
2023/03/22 09:17:29;;;;;;;;;;;;;;;;;;7361950;19;765;-64
2023/03/22 09:19:57;;;;;;;;;;;;;;;;;;7363545;19;785;-65
2023/03/22 09:22:25;;;;;;;;;;;;;;;;;;7362532;19;916;-64
2023/03/22 09:24:54;;;;;;;;;;;;;;;;;;7361174;19;1316;-64
2023/03/22 09:27:22;;;;;;;;;;;;;;;;;;7366189;19;1884;-64
2023/03/22 09:29:51;;;;;;;;;;;;;;;;;;7360466;19;862;-65
2023/03/22 09:32:20;;;;;;;;;;;;;;;;;;7361267;19;803;-64
2023/03/22 09:34:55;;;;;;;;;;;;;;;;;;7363482;19;1907;-65
2023/03/22 09:37:29;;;;;;;;;;;;;;;;;;7361788;19;833;-64
2023/03/22 09:39:58;;;;;;;;;;;;;;;;;;7362068;19;1923;-64
2023/03/22 09:42:26;;;;;;;;;;;;;;;;;;7364405;19;1851;-65
2023/03/22 09:44:54;;;;;;;;;;;;;;;;;;7361227;19;1933;-64
2023/03/22 09:47:26;;;;;;;;;;;;;;;;;;7361776;19;1843;-64
2023/03/22 09:49:54;;;;;;;;;;;;;;;;;;7362072;19;867;-64
2023/03/22 09:52:22;;;;;;;;;;;;;;;;;;7365433;19;1864;-64
2023/03/22 09:54:50;;;;;;;;;;;;;;;;;;7363323;19;1826;-65
2023/03/22 09:57:18;;;;;;;;;;;;;;;;;;7367940;19;1530;-64
2023/03/22 09:59:46;;;;;;;;;;;;;;;;;;7363957;19;1808;-64
2023/03/22 10:02:15;;;;;;;;;;;;;;;;;;7364171;19;1639;-64
2023/03/22 10:04:43;;;;;;;;;;;;;;;;;;7366813;19;1911;-65
2023/03/22 10:07:11;;;;;;;;;;;;;;;;;;7369130;19;806;-64
2023/03/22 10:09:39;;;;;;;;;;;;;;;;;;7372389;19;1908;-65
2023/03/22 10:12:07;;;;;;;;;;;;;;;;;;7374272;19;1909;-65
2023/03/22 10:14:35;;;;;;;;;;;;;;;;;;7369773;19;1848;-65
2023/03/22 10:17:04;;;;;;;;;;;;;;;;;;7368997;19;1801;-64
2023/03/22 10:19:33;;;;;;;;;;;;;;;;;;7372234;19;1616;-65
2023/03/22 10:22:02;;;;;;;;;;;;;;;;;;7369861;19;1787;-65
2023/03/22 10:24:30;;;;;;;;;;;;;;;;;;7367786;19;1313;-66
2023/03/22 10:26:58;;;;;;;;;;;;;;;;;;7370091;19;794;-65
2023/03/22 10:29:26;;;;;;;;;;;;;;;;;;7367201;19;874;-65
2023/03/22 10:31:54;;;;;;;;;;;;;;;;;;7371654;19;1816;-65
2023/03/22 10:34:22;;;;;;;;;;;;;;;;;;7365096;19;1858;-65
2023/03/22 10:36:51;;;;;;;;;;;;;;;;;;7369148;19;1785;-65
2023/03/22 10:39:19;;;;;;;;;;;;;;;;;;7371893;19;1784;-65
2023/03/22 10:41:47;;;;;;;;;;;;;;;;;;7367851;19;852;-65
2023/03/22 10:44:15;;;;;;;;;;;;;;;;;;7367480;19;1338;-65
2023/03/22 10:46:43;;;;;;;;;;;;;;;;;;7368941;19;866;-65
2023/03/22 10:49:11;;;;;;;;;;;;;;;;;;7367687;19;809;-64
2023/03/22 10:51:39;;;;;;;;;;;;;;;;;;7368779;19;810;-65
2023/03/22 10:54:08;;;;;;;;;;;;;;;;;;7366391;19;1851;-65
2023/03/22 10:56:36;;;;;;;;;;;;;;;;;;7368014;19;803;-65
2023/03/22 10:59:04;;;;;;;;;;;;;;;;;;7366201;19;809;-65
2023/03/22 11:01:32;;;;;;;;;;;;;;;;;;7367763;19;872;-64
2023/03/22 11:04:01;;;;;;;;;;;;;;;;;;7367516;19;1341;-65
2023/03/22 11:06:31;;;;;;;;;;;;;;;;;;7368138;19;802;-66
2023/03/22 11:09:00;;;;;;;;;;;;;;;;;;7367566;19;699;-65
2023/03/22 11:11:28;;;;;;;;;;;;;;;;;;7368037;19;826;-66
2023/03/22 11:13:56;;;;;;;;;;;;;;;;;;7365427;19;1834;-66
2023/03/22 11:16:24;;;;;;;;;;;;;;;;;;7366630;19;794;-66
2023/03/22 11:18:52;;;;;;;;;;;;;;;;;;7365777;19;849;-67
2023/03/22 11:21:20;;;;;;;;;;;;;;;;;;7367239;19;817;-66
2023/03/22 11:23:49;;;;;;;;;;;;;;;;;;7365998;19;793;-66
2023/03/22 11:26:17;;;;;;;;;;;;;;;;;;7364464;19;1395;-65
2023/03/22 11:28:45;;;;;;;;;;;;;;;;;;7365569;19;825;-66
2023/03/22 11:31:13;;;;;;;;;;;;;;;;;;7366292;19;826;-66
2023/03/22 11:33:41;;;;;;;;;;;;;;;;;;7365473;19;1860;-66
2023/03/22 11:36:10;;;;;;;;;;;;;;;;;;7363525;19;1325;-66
2023/03/22 11:38:38;;;;;;;;;;;;;;;;;;7365259;19;825;-67
2023/03/22 11:41:06;;;;;;;;;;;;;;;;;;7366364;19;860;-66
2023/03/22 11:43:34;;;;;;;;;;;;;;;;;;7366567;19;775;-65
2023/03/22 11:46:02;;;;;;;;;;;;;;;;;;7363324;19;1379;-65
2023/03/22 11:48:31;;;;;;;;;;;;;;;;;;7363941;19;759;-65
2023/03/22 11:50:59;;;;;;;;;;;;;;;;;;7366533;19;809;-66
2023/03/22 11:53:27;;;;;;;;;;;;;;;;;;7366137;19;1848;-69
2023/03/22 11:55:55;;;;;;;;;;;;;;;;;;7364408;19;1266;-67
2023/03/22 11:58:23;;;;;;;;;;;;;;;;;;7366007;19;833;-68
2023/03/22 12:00:51;;;;;;;;;;;;;;;;;;7367578;19;797;-67
2023/03/22 12:03:20;;;;;;;;;;;;;;;;;;7369589;19;857;-67
2023/03/22 12:05:48;;;;;;;;;;;;;;;;;;7367440;19;1261;-66
2023/03/22 12:08:16;;;;;;;;;;;;;;;;;;7369480;19;770;-66
2023/03/22 12:10:44;;;;;;;;;;;;;;;;;;7369897;19;850;-67
2023/03/22 12:13:13;;;;;;;;;;;;;;;;;;7369240;19;841;-66
2023/03/22 12:15:41;;;;;;;;;;;;;;;;;;7365815;19;1857;-67
2023/03/22 12:18:09;;;;;;;;;;;;;;;;;;7366603;19;798;-67
2023/03/22 12:20:37;;;;;;;;;;;;;;;;;;7366544;19;805;-68
2023/03/22 12:23:05;;;;;;;;;;;;;;;;;;7365281;19;810;-67
2023/03/22 12:25:33;;;;;;;;;;;;;;;;;;7362303;19;1242;-67
2023/03/22 12:28:02;;;;;;;;;;;;;;;;;;7363622;19;824;-67
2023/03/22 12:30:30;;;;;;;;;;;;;;;;;;7363286;19;883;-67
2023/03/22 12:32:58;;;;;;;;;;;;;;;;;;7365008;19;795;-66
2023/03/22 12:35:27;;;;;;;;;;;;;;;;;;7362432;19;1845;-66
2023/03/22 12:37:55;;;;;;;;;;;;;;;;;;7364165;19;821;-66
2023/03/22 12:40:23;;;;;;;;;;;;;;;;;;7364851;19;802;-66
2023/03/22 12:42:51;;;;;;;;;;;;;;;;;;7365458;19;727;-67
2023/03/22 12:45:19;;;;;;;;;;;;;;;;;;7361601;19;1539;-67
2023/03/22 12:47:47;;;;;;;;;;;;;;;;;;7368289;19;1817;-66
2023/03/22 12:50:15;;;;;;;;;;;;;;;;;;7368391;19;1667;-68
2023/03/22 12:52:44;;;;;;;;;;;;;;;;;;7367733;19;1825;-67
2023/03/22 12:55:12;;;;;;;;;;;;;;;;;;7362926;19;1857;-67
2023/03/22 12:57:40;;;;;;;;;;;;;;;;;;7363337;19;791;-69
2023/03/22 13:00:12;;;;;;;;;;;;;;;;;;7364560;19;858;-68
2023/03/22 13:02:40;;;;;;;;;;;;;;;;;;7364267;19;820;-67
2023/03/22 13:05:08;;;;;;;;;;;;;;;;;;7361932;19;1324;-68
2023/03/22 13:07:36;;;;;;;;;;;;;;;;;;7364039;19;758;-67
2023/03/22 13:10:05;;;;;;;;;;;;;;;;;;7365273;19;2127;-67
2023/03/22 13:12:33;;;;;;;;;;;;;;;;;;7366324;19;1874;-67
2023/03/22 13:15:02;;;;;;;;;;;;;;;;;;7363021;19;1841;-66
2023/03/22 13:17:32;;;;;;;;;;;;;;;;;;7364144;19;861;-68
2023/03/22 13:20:00;;;;;;;;;;;;;;;;;;7364055;19;746;-68
2023/03/22 13:22:28;;;;;;;;;;;;;;;;;;7362630;19;851;-67
2023/03/22 13:24:56;;;;;;;;;;;;;;;;;;7362641;19;1293;-66
2023/03/22 13:27:24;;;;;;;;;;;;;;;;;;7363351;19;767;-67
2023/03/22 13:29:56;;;;;;;;;;;;;;;;;;7363090;19;793;-66
2023/03/22 13:32:28;;;;;;;;;;;;;;;;;;7364831;19;751;-67
2023/03/22 13:34:56;;;;;;;;;;;;;;;;;;7365726;19;1872;-67
2023/03/22 13:37:29;;;;;;;;;;;;;;;;;;7362893;19;1962;-69
2023/03/22 13:40:00;;;;;;;;;;;;;;;;;;7362065;19;1454;-67
2023/03/22 13:42:28;;;;;;;;;;;;;;;;;;7369367;19;810;-67
2023/03/22 13:45:01;;;;;;;;;;;;;;;;;;7371996;19;1811;-67
2023/03/22 13:47:29;;;;;;;;;;;;;;;;;;7373927;19;1608;-68
2023/03/22 13:49:57;;;;;;;;;;;;;;;;;;7372106;19;1888;-67
2023/03/22 13:52:25;;;;;;;;;;;;;;;;;;7372287;19;1852;-67
2023/03/22 13:54:53;;;;;;;;;;;;;;;;;;7370384;19;2136;-67
2023/03/22 13:57:22;;;;;;;;;;;;;;;;;;7372071;19;1824;-66
2023/03/22 13:59:51;;;;;;;;;;;;;;;;;;7369992;19;1960;-66
2023/03/22 14:02:20;;;;;;;;;;;;;;;;;;7369373;19;874;-66
2023/03/22 14:04:49;;;;;;;;;;;;;;;;;;7368241;19;1270;-67
2023/03/22 14:07:18;;;;;;;;;;;;;;;;;;7369209;19;803;-67
2023/03/22 14:09:46;;;;;;;;;;;;;;;;;;7371099;19;1847;-67
2023/03/22 14:12:14;;;;;;;;;;;;;;;;;;7369398;19;793;-66
2023/03/22 14:14:43;;;;;;;;;;;;;;;;;;7368693;19;1840;-67
2023/03/22 14:17:11;;;;;;;;;;;;;;;;;;7371382;19;1924;-67
2023/03/22 14:19:39;;;;;;;;;;;;;;;;;;7372740;19;1869;-67
2023/03/22 14:22:07;;;;;;;;;;;;;;;;;;7370713;19;1875;-68
2023/03/22 14:24:35;;;;;;;;;;;;;;;;;;7368887;19;1344;-67
2023/03/22 14:27:03;;;;;;;;;;;;;;;;;;7369275;19;846;-67
2023/03/22 14:29:31;;;;;;;;;;;;;;;;;;7367942;19;818;-65
2023/03/22 14:32:00;;;;;;;;;;;;;;;;;;7368458;19;774;-67
2023/03/22 14:34:29;;;;;;;;;;;;;;;;;;7368477;19;1849;-66
2023/03/22 14:36:58;;;;;;;;;;;;;;;;;;7369142;19;820;-67
2023/03/22 14:39:26;;;;;;;;;;;;;;;;;;7368279;19;821;-66
2023/03/22 14:41:54;;;;;;;;;;;;;;;;;;7372372;19;1545;-67
2023/03/22 14:44:22;;;;;;;;;;;;;;;;;;7368075;19;1724;-67
2023/03/22 14:46:50;;;;;;;;;;;;;;;;;;7368830;19;904;-66
2023/03/22 14:49:18;;;;;;;;;;;;;;;;;;7367470;19;790;-67
2023/03/22 14:51:47;;;;;;;;;;;;;;;;;;7367774;19;1737;-66
2023/03/22 14:54:15;;;;;;;;;;;;;;;;;;7369263;19;1849;-66
2023/03/22 14:56:45;;;;;;;;;;;;;;;;;;7369270;19;834;-66
2023/03/22 14:59:13;;;;;;;;;;;;;;;;;;7372385;19;2083;-66
2023/03/22 15:01:41;;;;;;;;;;;;;;;;;;7371829;19;1836;-67
2023/03/22 15:04:10;;;;;;;;;;;;;;;;;;7367739;19;1333;-67
2023/03/22 15:06:38;;;;;;;;;;;;;;;;;;7368015;19;848;-67
2023/03/22 15:09:06;;;;;;;;;;;;;;;;;;7365625;19;819;-66
2023/03/22 15:11:34;;;;;;;;;;;;;;;;;;7366897;19;802;-67
2023/03/22 15:14:03;;;;;;;;;;;;;;;;;;7367662;19;1413;-67
2023/03/22 15:16:31;;;;;;;;;;;;;;;;;;7366557;19;1857;-66
2023/03/22 15:18:59;;;;;;;;;;;;;;;;;;7366910;19;795;-67
2023/03/22 15:21:27;;;;;;;;;;;;;;;;;;7367736;19;778;-67
2023/03/22 15:23:55;;;;;;;;;;;;;;;;;;7368964;19;1902;-67
2023/03/22 15:26:24;;;;;;;;;;;;;;;;;;7368934;19;1741;-66
2023/03/22 15:28:52;;;;;;;;;;;;;;;;;;7368175;19;1806;-66
2023/03/22 15:31:20;;;;;;;;;;;;;;;;;;7365835;19;846;-67
2023/03/22 15:33:48;;;;;;;;;;;;;;;;;;7367228;19;821;-66
2023/03/22 15:36:16;;;;;;;;;;;;;;;;;;7365094;19;1849;-66
2023/03/22 15:38:44;;;;;;;;;;;;;;;;;;7366927;19;1003;-66
2023/03/22 15:41:13;;;;;;;;;;;;;;;;;;7367651;19;806;-66
2023/03/22 15:43:41;;;;;;;;;;;;;;;;;;7367150;19;1923;-66
2023/03/22 15:46:09;;;;;;;;;;;;;;;;;;7363602;19;1191;-65
2023/03/22 15:48:37;;;;;;;;;;;;;;;;;;7365267;19;857;-65
2023/03/22 15:51:05;;;;;;;;;;;;;;;;;;7367230;19;827;-65
2023/03/22 15:53:33;;;;;;;;;;;;;;;;;;7367002;19;782;-66
2023/03/22 15:56:02;;;;;;;;;;;;;;;;;;7364539;19;1868;-65
2023/03/22 15:58:31;;;;;;;;;;;;;;;;;;7366377;19;862;-66
2023/03/22 16:00:59;;;;;;;;;;;;;;;;;;7369955;19;1872;-66
2023/03/22 16:03:27;;;;;;;;;;;;;;;;;;7365299;19;944;-66
2023/03/22 16:05:55;;;;;;;;;;;;;;;;;;7363884;19;1282;-66
2023/03/22 16:08:26;;;;;;;;;;;;;;;;;;7365130;19;853;-63
2023/03/22 16:10:54;;;;;;;;;;;;;;;;;;7364301;19;800;-64
2023/03/22 16:13:22;;;;;;;;;;;;;;;;;;7366302;19;778;-64
2023/03/22 16:15:50;;;;;;;;;;;;;;;;;;7363225;19;1854;-66
2023/03/22 16:18:20;;;;;;;;;;;;;;;;;;7367750;19;1823;-65
2023/03/22 16:20:48;;;;;;;;;;;;;;;;;;7369843;19;1819;-68
2023/03/22 16:23:16;;;;;;;;;;;;;;;;;;7369195;19;1828;-66
2023/03/22 16:25:44;;;;;;;;;;;;;;;;;;7365866;19;1910;-64
2023/03/22 16:28:12;;;;;;;;;;;;;;;;;;7364432;19;799;-66
2023/03/22 16:30:41;;;;;;;;;;;;;;;;;;7366392;19;1804;-65
2023/03/22 16:33:09;;;;;;;;;;;;;;;;;;7365844;19;759;-65
2023/03/22 16:35:37;;;;;;;;;;;;;;;;;;7363822;19;1845;-66
2023/03/22 16:38:05;;;;;;;;;;;;;;;;;;7364531;19;1142;-66
2023/03/22 16:40:33;;;;;;;;;;;;;;;;;;7366731;19;874;-67
2023/03/22 16:43:01;;;;;;;;;;;;;;;;;;7364847;19;795;-66
2023/03/22 16:45:29;;;;;;;;;;;;;;;;;;7363506;19;1324;-66
2023/03/22 16:47:58;;;;;;;;;;;;;;;;;;7365192;19;810;-65
2023/03/22 16:50:26;;;;;;;;;;;;;;;;;;7364351;19;809;-65
2023/03/22 16:52:54;;;;;;;;;;;;;;;;;;7363991;19;789;-65
2023/03/22 16:55:22;;;;;;;;;;;;;;;;;;7362434;19;1841;-65
2023/03/22 16:57:51;;;;;;;;;;;;;;;;;;7363938;19;888;-65
2023/03/22 17:00:20;;;;;;;;;;;;;;;;;;7368475;19;1971;-66
2023/03/22 17:02:48;;;;;;;;;;;;;;;;;;7365184;19;816;-66
2023/03/22 17:05:19;;;;;;;;;;;;;;;;;;7362614;19;1329;-65
2023/03/22 17:07:47;;;;;;;;;;;;;;;;;;7363709;19;778;-66
2023/03/22 17:10:15;;;;;;;;;;;;;;;;;;7365894;19;1830;-66
2023/03/22 17:12:45;;;;;;;;;;;;;;;;;;7369493;19;1816;-66
2023/03/22 17:15:13;;;;;;;;;;;;;;;;;;7368704;19;1857;-67
2023/03/22 17:17:41;;;;;;;;;;;;;;;;;;7373063;19;763;-66
2023/03/22 17:20:09;;;;;;;;;;;;;;;;;;7375923;19;1609;-66
2023/03/22 17:22:37;;;;;;;;;;;;;;;;;;7375280;19;1741;-66
2023/03/22 17:25:05;;;;;;;;;;;;;;;;;;7373208;19;1290;-66
2023/03/22 17:27:33;;;;;;;;;;;;;;;;;;7376117;19;1922;-66
2023/03/22 17:30:02;;;;;;;;;;;;;;;;;;7374794;19;839;-66
2023/03/22 17:32:30;;;;;;;;;;;;;;;;;;7373059;19;795;-66